sensor_id;sensor_type;location;lat;lon;timestamp;pressure;altitude;pressure_sealevel;temperature
29701;BMP280;57917;51.380;-0.176;2022-08-21T00:04:17;101343.03;;;18.13
29701;BMP280;57917;51.380;-0.176;2022-08-21T00:10:08;101330.59;;;18.00
29701;BMP280;57917;51.380;-0.176;2022-08-21T00:15:56;101326.94;;;17.96
29701;BMP280;57917;51.380;-0.176;2022-08-21T00:21:46;101334.47;;;17.85
29701;BMP280;57917;51.380;-0.176;2022-08-21T00:27:33;101342.16;;;17.78
29701;BMP280;57917;51.380;-0.176;2022-08-21T00:33:25;101357.47;;;17.56
29701;BMP280;57917;51.380;-0.176;2022-08-21T00:39:12;101348.88;;;17.67
29701;BMP280;57917;51.380;-0.176;2022-08-21T00:45:01;101341.78;;;17.63
29701;BMP280;57917;51.380;-0.176;2022-08-21T00:50:54;101337.94;;;17.55
29701;BMP280;57917;51.380;-0.176;2022-08-21T00:56:55;101349.41;;;17.47
29701;BMP280;57917;51.380;-0.176;2022-08-21T01:02:45;101326.75;;;17.53
29701;BMP280;57917;51.380;-0.176;2022-08-21T01:08:33;101318.25;;;17.51
29701;BMP280;57917;51.380;-0.176;2022-08-21T01:14:24;101323.50;;;17.34
29701;BMP280;57917;51.380;-0.176;2022-08-21T01:20:11;101330.00;;;17.42
29701;BMP280;57917;51.380;-0.176;2022-08-21T01:25:58;101341.22;;;17.44
29701;BMP280;57917;51.380;-0.176;2022-08-21T01:31:46;101339.75;;;17.38
29701;BMP280;57917;51.380;-0.176;2022-08-21T01:37:33;101341.94;;;17.36
29701;BMP280;57917;51.380;-0.176;2022-08-21T01:43:20;101341.94;;;17.36
29701;BMP280;57917;51.380;-0.176;2022-08-21T01:49:16;101350.16;;;17.39
29701;BMP280;57917;51.380;-0.176;2022-08-21T01:55:10;101355.63;;;17.34
29701;BMP280;57917;51.380;-0.176;2022-08-21T02:01:00;101354.72;;;17.39
29701;BMP280;57917;51.380;-0.176;2022-08-21T02:06:48;101352.44;;;17.32
29701;BMP280;57917;51.380;-0.176;2022-08-21T02:12:35;101349.53;;;17.42
29701;BMP280;57917;51.380;-0.176;2022-08-21T02:18:22;101341.53;;;17.51
29701;BMP280;57917;51.380;-0.176;2022-08-21T02:24:10;101342.28;;;17.43
29701;BMP280;57917;51.380;-0.176;2022-08-21T02:29:57;101335.22;;;17.47
29701;BMP280;57917;51.380;-0.176;2022-08-21T02:35:45;101327.38;;;17.50
29701;BMP280;57917;51.380;-0.176;2022-08-21T02:41:36;101331.72;;;17.38
29701;BMP280;57917;51.380;-0.176;2022-08-21T02:47:23;101337.19;;;17.33
29701;BMP280;57917;51.380;-0.176;2022-08-21T02:53:12;101324.31;;;17.35
29701;BMP280;57917;51.380;-0.176;2022-08-21T02:59:37;101320.88;;;17.43
29701;BMP280;57917;51.380;-0.176;2022-08-21T03:05:25;101323.50;;;17.34
29701;BMP280;57917;51.380;-0.176;2022-08-21T03:11:14;101317.34;;;17.25
29701;BMP280;57917;51.380;-0.176;2022-08-21T03:17:05;101316.09;;;17.31
29701;BMP280;57917;51.380;-0.176;2022-08-21T03:22:56;101312.63;;;17.31
29701;BMP280;57917;51.380;-0.176;2022-08-21T03:28:45;101303.38;;;17.37
29701;BMP280;57917;51.380;-0.176;2022-08-21T03:34:32;101305.84;;;17.03
29701;BMP280;57917;51.380;-0.176;2022-08-21T03:40:24;101310.47;;;17.11
29701;BMP280;57917;51.380;-0.176;2022-08-21T03:46:11;101312.00;;;17.12
29701;BMP280;57917;51.380;-0.176;2022-08-21T03:51:59;101316.69;;;17.28
29701;BMP280;57917;51.380;-0.176;2022-08-21T03:57:46;101317.25;;;17.17
29701;BMP280;57917;51.380;-0.176;2022-08-21T04:03:36;101320.50;;;17.05
29701;BMP280;57917;51.380;-0.176;2022-08-21T04:09:24;101325.28;;;16.95
29701;BMP280;57917;51.380;-0.176;2022-08-21T04:15:11;101312.22;;;16.93
29701;BMP280;57917;51.380;-0.176;2022-08-21T04:20:59;101326.00;;;16.87
29701;BMP280;57917;51.380;-0.176;2022-08-21T04:26:47;101326.22;;;16.77
29701;BMP280;57917;51.380;-0.176;2022-08-21T04:32:34;101323.31;;;16.87
29701;BMP280;57917;51.380;-0.176;2022-08-21T04:38:21;101323.44;;;16.82
29701;BMP280;57917;51.380;-0.176;2022-08-21T04:44:10;101335.41;;;16.84
29701;BMP280;57917;51.380;-0.176;2022-08-21T04:49:57;101348.66;;;17.03
29701;BMP280;57917;51.380;-0.176;2022-08-21T04:55:44;101344.25;;;17.07
29701;BMP280;57917;51.380;-0.176;2022-08-21T05:01:34;101350.28;;;16.90
29701;BMP280;57917;51.380;-0.176;2022-08-21T05:07:28;101339.69;;;17.07
29701;BMP280;57917;51.380;-0.176;2022-08-21T05:13:28;101349.72;;;17.02
29701;BMP280;57917;51.380;-0.176;2022-08-21T05:19:15;101335.88;;;17.00
29701;BMP280;57917;51.380;-0.176;2022-08-21T05:25:02;101334.56;;;17.11
29701;BMP280;57917;51.380;-0.176;2022-08-21T05:30:56;101349.16;;;17.05
29701;BMP280;57917;51.380;-0.176;2022-08-21T05:36:44;101348.84;;;16.93
29701;BMP280;57917;51.380;-0.176;2022-08-21T05:42:31;101360.75;;;17.00
29701;BMP280;57917;51.380;-0.176;2022-08-21T05:48:21;101364.09;;;17.06
29701;BMP280;57917;51.380;-0.176;2022-08-21T05:54:08;101368.44;;;17.15
29701;BMP280;57917;51.380;-0.176;2022-08-21T05:59:55;101376.47;;;17.24
29701;BMP280;57917;51.380;-0.176;2022-08-21T06:05:42;101367.75;;;17.32
29701;BMP280;57917;51.380;-0.176;2022-08-21T06:11:30;101371.72;;;17.43
29701;BMP280;57917;51.380;-0.176;2022-08-21T06:17:18;101376.44;;;17.37
29701;BMP280;57917;51.380;-0.176;2022-08-21T06:23:05;101370.66;;;17.44
29701;BMP280;57917;51.380;-0.176;2022-08-21T06:28:52;101374.50;;;17.60
29701;BMP280;57917;51.380;-0.176;2022-08-21T06:34:40;101370.63;;;17.74
29701;BMP280;57917;51.380;-0.176;2022-08-21T06:40:28;101353.59;;;18.01
29701;BMP280;57917;51.380;-0.176;2022-08-21T06:46:28;101342.63;;;18.28
29701;BMP280;57917;51.380;-0.176;2022-08-21T06:52:18;101325.94;;;18.39
29701;BMP280;57917;51.380;-0.176;2022-08-21T06:58:06;101323.06;;;18.44
29701;BMP280;57917;51.380;-0.176;2022-08-21T07:03:58;101332.09;;;18.65
29701;BMP280;57917;51.380;-0.176;2022-08-21T07:09:44;101329.88;;;18.93
29701;BMP280;57917;51.380;-0.176;2022-08-21T07:15:31;101314.38;;;18.90
29701;BMP280;57917;51.380;-0.176;2022-08-21T07:21:20;101313.44;;;18.95
29701;BMP280;57917;51.380;-0.176;2022-08-21T07:27:17;101310.91;;;18.98
29701;BMP280;57917;51.380;-0.176;2022-08-21T07:33:23;101323.94;;;19.25
29701;BMP280;57917;51.380;-0.176;2022-08-21T07:39:51;101310.03;;;19.40
29701;BMP280;57917;51.380;-0.176;2022-08-21T07:45:48;101304.66;;;19.69
29701;BMP280;57917;51.380;-0.176;2022-08-21T07:51:43;101308.78;;;19.96
29701;BMP280;57917;51.380;-0.176;2022-08-21T08:03:58;101300.50;;;20.30
29701;BMP280;57917;51.380;-0.176;2022-08-21T08:09:46;101303.78;;;20.35
29701;BMP280;57917;51.380;-0.176;2022-08-21T08:15:33;101294.47;;;20.33
29701;BMP280;57917;51.380;-0.176;2022-08-21T08:21:57;101303.25;;;20.42
29701;BMP280;57917;51.380;-0.176;2022-08-21T08:28:25;101285.03;;;20.47
29701;BMP280;57917;51.380;-0.176;2022-08-21T08:41:19;101267.25;;;20.34
29701;BMP280;57917;51.380;-0.176;2022-08-21T08:54:43;101273.88;;;21.26
29701;BMP280;57917;51.380;-0.176;2022-08-21T09:14:29;101305.31;;;23.11
29701;BMP280;57917;51.380;-0.176;2022-08-21T09:20:43;101303.81;;;23.45
29701;BMP280;57917;51.380;-0.176;2022-08-21T09:26:58;101310.78;;;24.15
29701;BMP280;57917;51.380;-0.176;2022-08-21T09:32:55;101310.03;;;24.56
29701;BMP280;57917;51.380;-0.176;2022-08-21T09:38:52;101316.81;;;24.91
29701;BMP280;57917;51.380;-0.176;2022-08-21T09:44:43;101323.56;;;25.27
29701;BMP280;57917;51.380;-0.176;2022-08-21T09:51:12;101322.75;;;25.23
29701;BMP280;57917;51.380;-0.176;2022-08-21T10:04:10;101315.44;;;25.53
29701;BMP280;57917;51.380;-0.176;2022-08-21T10:10:31;101302.25;;;26.14
29701;BMP280;57917;51.380;-0.176;2022-08-21T10:33:03;101290.72;;;25.58
29701;BMP280;57917;51.380;-0.176;2022-08-21T10:47:55;101275.75;;;24.67
29701;BMP280;57917;51.380;-0.176;2022-08-21T11:01:22;101277.94;;;24.58
29701;BMP280;57917;51.380;-0.176;2022-08-21T11:13:11;101289.28;;;24.67
29701;BMP280;57917;51.380;-0.176;2022-08-21T11:26:08;101293.34;;;23.93
29701;BMP280;57917;51.380;-0.176;2022-08-21T11:50:46;101305.69;;;24.51
29701;BMP280;57917;51.380;-0.176;2022-08-21T11:56:42;101298.44;;;24.81
29701;BMP280;57917;51.380;-0.176;2022-08-21T12:02:36;101316.50;;;24.32
29701;BMP280;57917;51.380;-0.176;2022-08-21T12:08:30;101309.69;;;24.00
29701;BMP280;57917;51.380;-0.176;2022-08-21T12:14:19;101309.44;;;24.47
29701;BMP280;57917;51.380;-0.176;2022-08-21T12:26:34;101291.13;;;25.60
29701;BMP280;57917;51.380;-0.176;2022-08-21T12:32:53;101288.44;;;25.63
29701;BMP280;57917;51.380;-0.176;2022-08-21T12:51:12;101268.00;;;25.40
29701;BMP280;57917;51.380;-0.176;2022-08-21T12:57:17;101265.06;;;25.52
29701;BMP280;57917;51.380;-0.176;2022-08-21T13:03:06;101268.38;;;25.68
29701;BMP280;57917;51.380;-0.176;2022-08-21T13:08:57;101275.53;;;25.83
29701;BMP280;57917;51.380;-0.176;2022-08-21T13:14:47;101267.38;;;25.83
29701;BMP280;57917;51.380;-0.176;2022-08-21T13:20:37;101262.00;;;25.57
29701;BMP280;57917;51.380;-0.176;2022-08-21T13:26:24;101264.91;;;26.04
29701;BMP280;57917;51.380;-0.176;2022-08-21T13:32:19;101250.75;;;25.84
29701;BMP280;57917;51.380;-0.176;2022-08-21T13:38:07;101252.94;;;25.72
29701;BMP280;57917;51.380;-0.176;2022-08-21T13:44:31;101245.53;;;25.39
29701;BMP280;57917;51.380;-0.176;2022-08-21T13:57:18;101240.94;;;24.43
29701;BMP280;57917;51.380;-0.176;2022-08-21T14:03:41;101233.75;;;24.73
29701;BMP280;57917;51.380;-0.176;2022-08-21T14:09:41;101229.78;;;24.93
29701;BMP280;57917;51.380;-0.176;2022-08-21T14:15:32;101221.00;;;24.77
29701;BMP280;57917;51.380;-0.176;2022-08-21T14:21:34;101212.38;;;24.45
29701;BMP280;57917;51.380;-0.176;2022-08-21T14:27:25;101202.38;;;24.27
29701;BMP280;57917;51.380;-0.176;2022-08-21T14:33:26;101201.75;;;24.82
29701;BMP280;57917;51.380;-0.176;2022-08-21T14:39:14;101191.63;;;25.05
29701;BMP280;57917;51.380;-0.176;2022-08-21T14:45:29;101188.03;;;25.23
29701;BMP280;57917;51.380;-0.176;2022-08-21T14:51:17;101190.63;;;25.46
29701;BMP280;57917;51.380;-0.176;2022-08-21T14:57:30;101171.47;;;25.02
29701;BMP280;57917;51.380;-0.176;2022-08-21T15:03:20;101182.31;;;25.02
29701;BMP280;57917;51.380;-0.176;2022-08-21T15:09:17;101181.66;;;24.83
29701;BMP280;57917;51.380;-0.176;2022-08-21T15:15:05;101189.78;;;24.83
29701;BMP280;57917;51.380;-0.176;2022-08-21T15:20:52;101184.19;;;24.72
29701;BMP280;57917;51.380;-0.176;2022-08-21T15:26:44;101176.94;;;24.80
29701;BMP280;57917;51.380;-0.176;2022-08-21T15:32:31;101158.16;;;24.94
29701;BMP280;57917;51.380;-0.176;2022-08-21T15:38:23;101161.63;;;24.91
29701;BMP280;57917;51.380;-0.176;2022-08-21T15:44:12;101168.13;;;24.83
29701;BMP280;57917;51.380;-0.176;2022-08-21T15:50:21;101150.13;;;24.71
29701;BMP280;57917;51.380;-0.176;2022-08-21T15:56:20;101160.94;;;24.71
29701;BMP280;57917;51.380;-0.176;2022-08-21T16:02:19;101154.78;;;25.26
29701;BMP280;57917;51.380;-0.176;2022-08-21T16:08:08;101149.88;;;25.39
29701;BMP280;57917;51.380;-0.176;2022-08-21T16:13:59;101142.66;;;25.50
29701;BMP280;57917;51.380;-0.176;2022-08-21T16:19:46;101147.56;;;25.77
29701;BMP280;57917;51.380;-0.176;2022-08-21T16:25:38;101142.28;;;25.91
29701;BMP280;57917;51.380;-0.176;2022-08-21T16:31:30;101146.28;;;25.64
29701;BMP280;57917;51.380;-0.176;2022-08-21T16:37:18;101151.97;;;25.52
29701;BMP280;57917;51.380;-0.176;2022-08-21T16:43:10;101156.72;;;25.29
29701;BMP280;57917;51.380;-0.176;2022-08-21T16:48:59;101169.88;;;24.72
29701;BMP280;57917;51.380;-0.176;2022-08-21T16:54:47;101175.06;;;24.58
29701;BMP280;57917;51.380;-0.176;2022-08-21T17:01:06;101170.38;;;24.32
29701;BMP280;57917;51.380;-0.176;2022-08-21T17:06:53;101170.63;;;24.24
29701;BMP280;57917;51.380;-0.176;2022-08-21T17:12:44;101175.31;;;24.04
29701;BMP280;57917;51.380;-0.176;2022-08-21T17:18:37;101174.44;;;24.00
29701;BMP280;57917;51.380;-0.176;2022-08-21T17:24:28;101184.38;;;23.93
29701;BMP280;57917;51.380;-0.176;2022-08-21T17:53:29;101196.22;;;23.31
29701;BMP280;57917;51.380;-0.176;2022-08-21T17:59:19;101194.03;;;23.02
29701;BMP280;57917;51.380;-0.176;2022-08-21T18:05:15;101190.72;;;22.93
29701;BMP280;57917;51.380;-0.176;2022-08-21T18:11:02;101184.50;;;22.93
29701;BMP280;57917;51.380;-0.176;2022-08-21T18:16:56;101196.56;;;22.80
29701;BMP280;57917;51.380;-0.176;2022-08-21T18:22:45;101193.25;;;22.71
29701;BMP280;57917;51.380;-0.176;2022-08-21T18:28:35;101193.94;;;22.68
29701;BMP280;57917;51.380;-0.176;2022-08-21T18:34:30;101192.38;;;22.67
29701;BMP280;57917;51.380;-0.176;2022-08-21T18:40:20;101197.59;;;22.60
29701;BMP280;57917;51.380;-0.176;2022-08-21T18:46:07;101206.97;;;22.35
29701;BMP280;57917;51.380;-0.176;2022-08-21T18:51:56;101215.31;;;22.30
29701;BMP280;57917;51.380;-0.176;2022-08-21T18:57:45;101226.50;;;22.16
29701;BMP280;57917;51.380;-0.176;2022-08-21T19:03:33;101227.44;;;22.08
29701;BMP280;57917;51.380;-0.176;2022-08-21T19:09:22;101237.94;;;21.97
29701;BMP280;57917;51.380;-0.176;2022-08-21T19:15:16;101238.28;;;21.96
29701;BMP280;57917;51.380;-0.176;2022-08-21T19:21:06;101240.38;;;21.75
29701;BMP280;57917;51.380;-0.176;2022-08-21T19:26:53;101248.69;;;21.58
29701;BMP280;57917;51.380;-0.176;2022-08-21T19:33:01;101247.47;;;21.43
29701;BMP280;57917;51.380;-0.176;2022-08-21T19:38:53;101249.28;;;21.27
29701;BMP280;57917;51.380;-0.176;2022-08-21T19:44:40;101258.16;;;21.16
29701;BMP280;57917;51.380;-0.176;2022-08-21T19:50:29;101261.63;;;21.16
29701;BMP280;57917;51.380;-0.176;2022-08-21T19:56:21;101281.59;;;21.03
29701;BMP280;57917;51.380;-0.176;2022-08-21T20:02:31;101279.56;;;20.88
29701;BMP280;57917;51.380;-0.176;2022-08-21T20:08:36;101274.13;;;20.76
29701;BMP280;57917;51.380;-0.176;2022-08-21T20:14:28;101283.31;;;20.75
29701;BMP280;57917;51.380;-0.176;2022-08-21T20:20:25;101282.19;;;20.76
29701;BMP280;57917;51.380;-0.176;2022-08-21T20:26:23;101289.28;;;20.60
29701;BMP280;57917;51.380;-0.176;2022-08-21T20:32:29;101288.75;;;20.34
29701;BMP280;57917;51.380;-0.176;2022-08-21T20:38:42;101292.06;;;20.31
29701;BMP280;57917;51.380;-0.176;2022-08-21T20:51:51;101291.28;;;20.10
29701;BMP280;57917;51.380;-0.176;2022-08-21T20:58:00;101291.75;;;20.12
29701;BMP280;57917;51.380;-0.176;2022-08-21T21:03:59;101291.16;;;20.07
29701;BMP280;57917;51.380;-0.176;2022-08-21T21:09:49;101296.59;;;19.98
29701;BMP280;57917;51.380;-0.176;2022-08-21T21:15:40;101305.69;;;19.85
29701;BMP280;57917;51.380;-0.176;2022-08-21T21:21:32;101295.88;;;19.89
29701;BMP280;57917;51.380;-0.176;2022-08-21T21:27:43;101293.78;;;19.95
29701;BMP280;57917;51.380;-0.176;2022-08-21T21:33:51;101289.84;;;19.92
29701;BMP280;57917;51.380;-0.176;2022-08-21T21:39:48;101286.78;;;19.73
29701;BMP280;57917;51.380;-0.176;2022-08-21T22:04:16;101251.63;;;19.66
29701;BMP280;57917;51.380;-0.176;2022-08-21T22:10:35;101255.72;;;19.64
29701;BMP280;57917;51.380;-0.176;2022-08-21T22:16:33;101259.72;;;19.58
29701;BMP280;57917;51.380;-0.176;2022-08-21T22:22:33;101258.44;;;19.55
29701;BMP280;57917;51.380;-0.176;2022-08-21T22:28:24;101253.00;;;19.43
29701;BMP280;57917;51.380;-0.176;2022-08-21T22:34:15;101243.25;;;19.30
29701;BMP280;57917;51.380;-0.176;2022-08-21T22:40:05;101248.91;;;18.91
29701;BMP280;57917;51.380;-0.176;2022-08-21T22:51:47;101238.19;;;18.91
29701;BMP280;57917;51.380;-0.176;2022-08-21T22:57:34;101239.47;;;18.77
29701;BMP280;57917;51.380;-0.176;2022-08-21T23:03:32;101239.47;;;18.77
29701;BMP280;57917;51.380;-0.176;2022-08-21T23:15:15;101258.88;;;18.73
29701;BMP280;57917;51.380;-0.176;2022-08-21T23:45:30;101256.84;;;18.45
29701;BMP280;57917;51.380;-0.176;2022-08-21T23:51:28;101263.34;;;18.44
